sensor_id;sensor_type;location;lat;lon;timestamp;pressure;altitude;pressure_sealevel;temperature;humidity
17060;BME280;8646;49.716;9.266;2023-03-23T00:00:37;99406.09;;;14.33;55.55
17060;BME280;8646;49.716;9.266;2023-03-23T00:03:40;99513.41;;;14.92;55.55
17060;BME280;8646;49.716;9.266;2023-03-23T00:06:43;99516.00;;;14.94;55.11
17060;BME280;8646;49.716;9.266;2023-03-23T00:09:46;99511.13;;;14.86;55.42
17060;BME280;8646;49.716;9.266;2023-03-23T00:12:47;99508.09;;;14.91;55.51
17060;BME280;8646;49.716;9.266;2023-03-23T00:15:51;99511.69;;;14.91;55.58
17060;BME280;8646;49.716;9.266;2023-03-23T00:18:53;99522.03;;;14.86;55.92
17060;BME280;8646;49.716;9.266;2023-03-23T00:21:55;99511.13;;;14.86;55.73
17060;BME280;8646;49.716;9.266;2023-03-23T00:25:01;99516.69;;;14.84;55.68
17060;BME280;8646;49.716;9.266;2023-03-23T00:28:03;99514.19;;;14.81;56.18
17060;BME280;8646;49.716;9.266;2023-03-23T00:31:09;99506.13;;;14.80;56.14
17060;BME280;8646;49.716;9.266;2023-03-23T00:34:11;99510.81;;;14.78;56.05
17060;BME280;8646;49.716;9.266;2023-03-23T00:37:13;99508.19;;;14.76;55.96
17060;BME280;8646;49.716;9.266;2023-03-23T00:40:16;99476.13;;;14.56;55.96
17060;BME280;8646;49.716;9.266;2023-03-23T00:43:19;99494.06;;;14.71;55.99
17060;BME280;8646;49.716;9.266;2023-03-23T00:46:22;99494.16;;;14.70;55.91
17060;BME280;8646;49.716;9.266;2023-03-23T00:49:25;99476.94;;;14.69;55.57
17060;BME280;8646;49.716;9.266;2023-03-23T00:52:27;99483.50;;;14.67;55.54
17060;BME280;8646;49.716;9.266;2023-03-23T00:55:29;99481.34;;;14.59;55.90
17060;BME280;8646;49.716;9.266;2023-03-23T00:58:31;99483.41;;;14.56;55.97
17060;BME280;8646;49.716;9.266;2023-03-23T01:01:35;99486.56;;;14.49;55.99
17060;BME280;8646;49.716;9.266;2023-03-23T01:04:38;99466.50;;;14.38;55.91
17060;BME280;8646;49.716;9.266;2023-03-23T01:07:40;99468.47;;;14.36;56.38
17060;BME280;8646;49.716;9.266;2023-03-23T01:10:45;99454.31;;;14.31;56.38
17060;BME280;8646;49.716;9.266;2023-03-23T01:13:47;99476.00;;;14.45;56.45
17060;BME280;8646;49.716;9.266;2023-03-23T01:16:50;99476.97;;;14.44;56.60
17060;BME280;8646;49.716;9.266;2023-03-23T01:19:52;99470.56;;;14.45;56.45
17060;BME280;8646;49.716;9.266;2023-03-23T01:22:53;99470.47;;;14.46;56.68
17060;BME280;8646;49.716;9.266;2023-03-23T01:26:05;99461.53;;;14.44;56.27
17060;BME280;8646;49.716;9.266;2023-03-23T01:29:08;99455.75;;;14.49;56.39
17060;BME280;8646;49.716;9.266;2023-03-23T01:32:11;99448.47;;;14.49;56.34
17060;BME280;8646;49.716;9.266;2023-03-23T01:35:13;99444.88;;;14.49;56.20
17060;BME280;8646;49.716;9.266;2023-03-23T01:38:15;99457.81;;;14.45;56.20
17060;BME280;8646;49.716;9.266;2023-03-23T01:41:18;99450.78;;;14.43;56.50
17060;BME280;8646;49.716;9.266;2023-03-23T01:48:05;99443.22;;;14.34;56.22
17060;BME280;8646;49.716;9.266;2023-03-23T01:51:10;99446.69;;;14.36;55.96
17060;BME280;8646;49.716;9.266;2023-03-23T01:54:17;99348.91;;;13.84;56.01
17060;BME280;8646;49.716;9.266;2023-03-23T01:57:23;99440.19;;;14.38;55.96
17060;BME280;8646;49.716;9.266;2023-03-23T02:00:27;99440.09;;;14.40;56.10
17060;BME280;8646;49.716;9.266;2023-03-23T02:03:31;99445.53;;;14.40;56.15
17060;BME280;8646;49.716;9.266;2023-03-23T02:06:34;99440.00;;;14.41;56.06
17060;BME280;8646;49.716;9.266;2023-03-23T02:09:36;99422.97;;;14.38;55.74
17060;BME280;8646;49.716;9.266;2023-03-23T02:12:38;99427.88;;;14.45;55.46
17060;BME280;8646;49.716;9.266;2023-03-23T02:15:47;99432.25;;;14.48;55.29
17060;BME280;8646;49.716;9.266;2023-03-23T02:19:06;99431.25;;;14.49;54.95
17060;BME280;8646;49.716;9.266;2023-03-23T02:22:29;99425.72;;;14.50;55.09
17060;BME280;8646;49.716;9.266;2023-03-23T02:25:55;99421.25;;;14.49;55.03
17060;BME280;8646;49.716;9.266;2023-03-23T02:29:11;99417.66;;;14.49;54.95
17060;BME280;8646;49.716;9.266;2023-03-23T02:32:34;99414.28;;;14.45;54.99
17060;BME280;8646;49.716;9.266;2023-03-23T02:35:44;99393.81;;;14.40;54.89
17060;BME280;8646;49.716;9.266;2023-03-23T02:38:55;99388.56;;;14.37;54.87
17060;BME280;8646;49.716;9.266;2023-03-23T02:42:02;99400.56;;;14.47;54.86
17060;BME280;8646;49.716;9.266;2023-03-23T02:45:09;99377.59;;;14.26;54.74
17060;BME280;8646;49.716;9.266;2023-03-23T02:48:15;99423.31;;;14.46;55.04
17060;BME280;8646;49.716;9.266;2023-03-23T02:51:22;99414.50;;;14.42;54.73
17060;BME280;8646;49.716;9.266;2023-03-23T02:54:26;99427.22;;;14.55;54.61
17060;BME280;8646;49.716;9.266;2023-03-23T02:57:30;99407.53;;;14.51;54.59
17060;BME280;8646;49.716;9.266;2023-03-23T03:00:33;99417.97;;;14.57;54.65
17060;BME280;8646;49.716;9.266;2023-03-23T03:03:35;99401.84;;;14.54;54.94
17060;BME280;8646;49.716;9.266;2023-03-23T03:06:43;99391.81;;;14.55;54.90
17060;BME280;8646;49.716;9.266;2023-03-23T03:09:50;99390.84;;;14.56;55.14
17060;BME280;8646;49.716;9.266;2023-03-23T03:12:58;99366.25;;;14.44;55.08
17060;BME280;8646;49.716;9.266;2023-03-23T03:16:07;99380.53;;;14.48;55.18
17060;BME280;8646;49.716;9.266;2023-03-23T03:19:18;99360.81;;;14.32;55.29
17060;BME280;8646;49.716;9.266;2023-03-23T03:22:25;99389.56;;;14.48;55.36
17060;BME280;8646;49.716;9.266;2023-03-23T03:25:30;99390.53;;;14.47;55.52
17060;BME280;8646;49.716;9.266;2023-03-23T03:28:32;99386.94;;;14.47;55.29
17060;BME280;8646;49.716;9.266;2023-03-23T03:31:36;99383.13;;;14.49;55.24
17060;BME280;8646;49.716;9.266;2023-03-23T03:34:39;99313.53;;;14.09;55.83
17060;BME280;8646;49.716;9.266;2023-03-23T03:37:43;99393.38;;;14.46;55.79
17060;BME280;8646;49.716;9.266;2023-03-23T03:40:45;99308.09;;;13.96;55.55
17060;BME280;8646;49.716;9.266;2023-03-23T03:43:46;99392.19;;;14.50;55.43
17060;BME280;8646;49.716;9.266;2023-03-23T03:46:48;99395.63;;;14.52;55.13
17060;BME280;8646;49.716;9.266;2023-03-23T03:49:50;99395.97;;;14.47;55.84
17060;BME280;8646;49.716;9.266;2023-03-23T03:52:53;99365.75;;;14.27;55.95
17060;BME280;8646;49.716;9.266;2023-03-23T03:55:55;99387.06;;;14.33;56.39
17060;BME280;8646;49.716;9.266;2023-03-23T03:59:00;99389.44;;;14.37;56.57
17060;BME280;8646;49.716;9.266;2023-03-23T04:02:02;99373.13;;;14.25;57.09
17060;BME280;8646;49.716;9.266;2023-03-23T04:05:05;99398.41;;;14.27;57.86
17060;BME280;8646;49.716;9.266;2023-03-23T04:08:08;99376.22;;;14.07;58.35
17060;BME280;8646;49.716;9.266;2023-03-23T04:11:12;99399.47;;;14.11;58.91
17060;BME280;8646;49.716;9.266;2023-03-23T04:14:15;99372.31;;;13.86;59.25
17060;BME280;8646;49.716;9.266;2023-03-23T04:17:16;99399.50;;;13.99;60.11
17060;BME280;8646;49.716;9.266;2023-03-23T04:20:18;99402.56;;;13.94;60.07
17060;BME280;8646;49.716;9.266;2023-03-23T04:23:22;99390.34;;;13.87;60.65
17060;BME280;8646;49.716;9.266;2023-03-23T04:26:24;99387.97;;;13.83;61.04
17060;BME280;8646;49.716;9.266;2023-03-23T04:29:25;99360.75;;;13.57;61.22
17060;BME280;8646;49.716;9.266;2023-03-23T04:32:28;99400.16;;;13.77;61.34
17060;BME280;8646;49.716;9.266;2023-03-23T04:35:31;99393.41;;;13.70;61.29
17060;BME280;8646;49.716;9.266;2023-03-23T04:38:34;99402.09;;;13.75;61.85
17060;BME280;8646;49.716;9.266;2023-03-23T04:41:36;99396.53;;;13.64;61.87
17060;BME280;8646;49.716;9.266;2023-03-23T04:44:38;99398.16;;;13.66;62.05
17060;BME280;8646;49.716;9.266;2023-03-23T04:47:41;99405.13;;;13.70;62.40
17060;BME280;8646;49.716;9.266;2023-03-23T04:50:53;99399.03;;;13.67;62.76
17060;BME280;8646;49.716;9.266;2023-03-23T04:53:56;99399.69;;;13.58;62.72
17060;BME280;8646;49.716;9.266;2023-03-23T04:56:58;99376.81;;;13.48;62.72
17060;BME280;8646;49.716;9.266;2023-03-23T05:00:00;99428.19;;;13.65;62.75
17060;BME280;8646;49.716;9.266;2023-03-23T05:03:04;99422.75;;;13.65;63.25
17060;BME280;8646;49.716;9.266;2023-03-23T05:06:08;99431.66;;;13.67;63.67
17060;BME280;8646;49.716;9.266;2023-03-23T05:09:11;99425.25;;;13.68;64.07
17060;BME280;8646;49.716;9.266;2023-03-23T05:12:13;99431.22;;;13.73;64.44
17060;BME280;8646;49.716;9.266;2023-03-23T05:15:16;99429.28;;;13.75;64.47
17060;BME280;8646;49.716;9.266;2023-03-23T05:18:17;99432.53;;;13.80;64.49
17060;BME280;8646;49.716;9.266;2023-03-23T05:21:20;99436.81;;;13.84;64.67
17060;BME280;8646;49.716;9.266;2023-03-23T05:24:23;99447.34;;;13.89;64.70
17060;BME280;8646;49.716;9.266;2023-03-23T05:27:25;99444.63;;;13.89;65.02
17060;BME280;8646;49.716;9.266;2023-03-23T05:30:28;99418.22;;;13.78;64.94
17060;BME280;8646;49.716;9.266;2023-03-23T05:33:30;99449.63;;;13.95;65.28
17060;BME280;8646;49.716;9.266;2023-03-23T05:36:31;99455.84;;;13.97;65.20
17060;BME280;8646;49.716;9.266;2023-03-23T05:39:35;99461.28;;;13.97;65.63
17060;BME280;8646;49.716;9.266;2023-03-23T05:42:37;99426.22;;;13.80;65.75
17060;BME280;8646;49.716;9.266;2023-03-23T05:45:41;99454.44;;;14.04;66.14
17060;BME280;8646;49.716;9.266;2023-03-23T05:48:42;99450.63;;;14.06;65.77
17060;BME280;8646;49.716;9.266;2023-03-23T05:51:45;99452.16;;;14.10;65.59
17060;BME280;8646;49.716;9.266;2023-03-23T05:54:48;99451.72;;;14.17;65.84
17060;BME280;8646;49.716;9.266;2023-03-23T05:57:50;99448.47;;;14.24;65.96
17060;BME280;8646;49.716;9.266;2023-03-23T06:00:52;99458.25;;;14.27;65.49
17060;BME280;8646;49.716;9.266;2023-03-23T06:03:54;99460.63;;;14.31;65.42
17060;BME280;8646;49.716;9.266;2023-03-23T06:06:59;99440.19;;;14.38;65.13
17060;BME280;8646;49.716;9.266;2023-03-23T06:10:03;99457.28;;;14.40;64.64
17060;BME280;8646;49.716;9.266;2023-03-23T06:13:05;99383.28;;;13.97;64.67
17060;BME280;8646;49.716;9.266;2023-03-23T06:16:07;99441.03;;;14.51;63.85
17060;BME280;8646;49.716;9.266;2023-03-23T06:19:13;99456.28;;;14.54;64.04
17060;BME280;8646;49.716;9.266;2023-03-23T06:22:16;99469.34;;;14.62;63.70
17060;BME280;8646;49.716;9.266;2023-03-23T06:25:19;99460.31;;;14.61;63.19
17060;BME280;8646;49.716;9.266;2023-03-23T06:28:20;99459.56;;;14.59;63.51
17060;BME280;8646;49.716;9.266;2023-03-23T06:31:22;99468.25;;;14.64;62.94
17060;BME280;8646;49.716;9.266;2023-03-23T06:34:24;99477.41;;;14.63;63.17
17060;BME280;8646;49.716;9.266;2023-03-23T06:37:26;99465.66;;;14.63;63.03
17060;BME280;8646;49.716;9.266;2023-03-23T06:40:29;99437.78;;;14.46;62.75
17060;BME280;8646;49.716;9.266;2023-03-23T06:43:31;99466.31;;;14.66;62.71
17060;BME280;8646;49.716;9.266;2023-03-23T06:46:33;99476.94;;;14.69;62.45
17060;BME280;8646;49.716;9.266;2023-03-23T06:49:35;99475.22;;;14.68;62.56
17060;BME280;8646;49.716;9.266;2023-03-23T06:52:37;99477.81;;;14.70;62.80
17060;BME280;8646;49.716;9.266;2023-03-23T06:55:42;99476.94;;;14.69;62.81
17060;BME280;8646;49.716;9.266;2023-03-23T06:58:44;99475.97;;;14.70;63.09
17060;BME280;8646;49.716;9.266;2023-03-23T07:01:47;99480.34;;;14.73;63.34
17060;BME280;8646;49.716;9.266;2023-03-23T07:04:48;99491.13;;;14.74;63.38
17060;BME280;8646;49.716;9.266;2023-03-23T07:07:50;99495.91;;;14.71;63.58
17060;BME280;8646;49.716;9.266;2023-03-23T07:10:54;99495.03;;;14.70;63.67
17060;BME280;8646;49.716;9.266;2023-03-23T07:13:56;99499.59;;;14.70;63.88
17060;BME280;8646;49.716;9.266;2023-03-23T07:16:58;99466.31;;;14.54;63.56
17060;BME280;8646;49.716;9.266;2023-03-23T07:20:01;99477.84;;;14.57;63.35
17060;BME280;8646;49.716;9.266;2023-03-23T07:23:03;99459.00;;;14.54;63.50
17060;BME280;8646;49.716;9.266;2023-03-23T07:26:07;99486.09;;;14.81;63.15
17060;BME280;8646;49.716;9.266;2023-03-23T07:29:09;99495.91;;;14.83;63.00
17060;BME280;8646;49.716;9.266;2023-03-23T07:32:11;99505.38;;;14.91;63.10
17060;BME280;8646;49.716;9.266;2023-03-23T07:35:13;99496.94;;;14.94;62.96
17060;BME280;8646;49.716;9.266;2023-03-23T07:38:15;99518.94;;;15.03;63.03
17060;BME280;8646;49.716;9.266;2023-03-23T07:41:18;99527.53;;;15.10;63.43
17060;BME280;8646;49.716;9.266;2023-03-23T07:44:21;99523.31;;;15.06;63.26
17060;BME280;8646;49.716;9.266;2023-03-23T07:47:23;99523.72;;;15.12;63.45
17060;BME280;8646;49.716;9.266;2023-03-23T07:50:25;99527.63;;;15.08;63.76
17060;BME280;8646;49.716;9.266;2023-03-23T07:53:27;99552.06;;;15.10;63.63
17060;BME280;8646;49.716;9.266;2023-03-23T07:56:30;99537.25;;;15.01;64.11
17060;BME280;8646;49.716;9.266;2023-03-23T07:59:32;99551.41;;;15.06;64.44
17060;BME280;8646;49.716;9.266;2023-03-23T08:02:34;99557.75;;;15.07;65.07
17060;BME280;8646;49.716;9.266;2023-03-23T08:05:36;99557.09;;;15.03;65.56
17060;BME280;8646;49.716;9.266;2023-03-23T08:08:38;99567.66;;;15.08;66.06
17060;BME280;8646;49.716;9.266;2023-03-23T08:11:42;99567.31;;;15.12;66.06
17060;BME280;8646;49.716;9.266;2023-03-23T08:14:44;99573.84;;;15.10;66.63
17060;BME280;8646;49.716;9.266;2023-03-23T08:17:45;99572.97;;;15.09;66.85
17060;BME280;8646;49.716;9.266;2023-03-23T08:20:47;99580.53;;;15.06;67.07
17060;BME280;8646;49.716;9.266;2023-03-23T08:23:49;99583.47;;;15.03;67.20
17060;BME280;8646;49.716;9.266;2023-03-23T08:26:53;99589.00;;;15.01;67.38
17060;BME280;8646;49.716;9.266;2023-03-23T08:29:55;99596.31;;;15.01;67.46
17060;BME280;8646;49.716;9.266;2023-03-23T08:32:57;99613.97;;;14.95;68.29
17060;BME280;8646;49.716;9.266;2023-03-23T08:36:01;99604.94;;;14.95;68.08
17060;BME280;8646;49.716;9.266;2023-03-23T08:39:03;99609.84;;;14.89;68.57
17060;BME280;8646;49.716;9.266;2023-03-23T08:42:07;99607.44;;;14.85;68.43
17060;BME280;8646;49.716;9.266;2023-03-23T08:45:10;99611.81;;;14.87;68.23
17060;BME280;8646;49.716;9.266;2023-03-23T08:48:12;99601.34;;;14.94;68.26
17060;BME280;8646;49.716;9.266;2023-03-23T08:51:15;99592.91;;;15.10;67.81
17060;BME280;8646;49.716;9.266;2023-03-23T08:54:17;99582.53;;;15.27;67.39
17060;BME280;8646;49.716;9.266;2023-03-23T08:57:20;99586.50;;;15.60;67.08
17060;BME280;8646;49.716;9.266;2023-03-23T09:00:22;99587.16;;;15.87;66.61
17060;BME280;8646;49.716;9.266;2023-03-23T09:03:26;99582.28;;;16.03;65.67
17060;BME280;8646;49.716;9.266;2023-03-23T09:06:28;99580.03;;;16.09;65.68
17060;BME280;8646;49.716;9.266;2023-03-23T09:09:30;99573.00;;;16.17;65.67
17060;BME280;8646;49.716;9.266;2023-03-23T09:12:36;99583.28;;;16.14;65.32
17060;BME280;8646;49.716;9.266;2023-03-23T09:15:38;99579.72;;;16.13;65.18
17060;BME280;8646;49.716;9.266;2023-03-23T09:18:40;99582.66;;;16.10;65.03
17060;BME280;8646;49.716;9.266;2023-03-23T09:21:41;99559.28;;;15.95;64.84
17060;BME280;8646;49.716;9.266;2023-03-23T09:24:45;99605.38;;;16.11;64.93
17060;BME280;8646;49.716;9.266;2023-03-23T09:27:52;99576.34;;;15.86;65.08
17060;BME280;8646;49.716;9.266;2023-03-23T09:30:56;99619.22;;;15.96;65.11
17060;BME280;8646;49.716;9.266;2023-03-23T09:33:59;99619.03;;;15.87;65.27
17060;BME280;8646;49.716;9.266;2023-03-23T09:37:03;99615.03;;;15.80;65.71
17060;BME280;8646;49.716;9.266;2023-03-23T09:40:07;99619.59;;;15.79;65.54
17060;BME280;8646;49.716;9.266;2023-03-23T09:43:31;99600.78;;;15.63;65.86
17060;BME280;8646;49.716;9.266;2023-03-23T09:46:43;99513.50;;;15.03;65.74
17060;BME280;8646;49.716;9.266;2023-03-23T09:49:51;99620.88;;;15.62;66.17
17060;BME280;8646;49.716;9.266;2023-03-23T09:52:55;99643.31;;;15.66;66.07
17060;BME280;8646;49.716;9.266;2023-03-23T09:55:58;99647.25;;;15.62;66.27
17060;BME280;8646;49.716;9.266;2023-03-23T09:59:08;99619.81;;;15.40;66.38
17060;BME280;8646;49.716;9.266;2023-03-23T10:02:15;99663.72;;;15.60;66.22
17060;BME280;8646;49.716;9.266;2023-03-23T10:05:27;99656.22;;;15.64;65.81
17060;BME280;8646;49.716;9.266;2023-03-23T10:08:32;99646.63;;;15.82;65.29
17060;BME280;8646;49.716;9.266;2023-03-23T10:11:42;99647.69;;;16.16;64.75
17060;BME280;8646;49.716;9.266;2023-03-23T10:15:02;99648.22;;;16.56;63.28
17060;BME280;8646;49.716;9.266;2023-03-23T10:18:12;99646.38;;;16.92;61.81
17060;BME280;8646;49.716;9.266;2023-03-23T10:21:17;99632.72;;;17.25;60.52
17060;BME280;8646;49.716;9.266;2023-03-23T10:24:21;99628.81;;;17.61;58.84
17060;BME280;8646;49.716;9.266;2023-03-23T10:27:33;99618.59;;;17.97;57.23
17060;BME280;8646;49.716;9.266;2023-03-23T10:30:38;99617.91;;;18.15;55.62
17060;BME280;8646;49.716;9.266;2023-03-23T10:33:42;99595.31;;;18.02;55.11
17060;BME280;8646;49.716;9.266;2023-03-23T10:36:54;99586.50;;;17.99;54.62
17060;BME280;8646;49.716;9.266;2023-03-23T10:39:59;99604.88;;;18.08;54.65
17060;BME280;8646;49.716;9.266;2023-03-23T10:43:01;99603.91;;;17.98;54.39
17060;BME280;8646;49.716;9.266;2023-03-23T10:46:25;99603.13;;;17.75;54.68
17060;BME280;8646;49.716;9.266;2023-03-23T10:49:34;99609.72;;;17.50;55.03
17060;BME280;8646;49.716;9.266;2023-03-23T10:52:38;99596.78;;;17.30;55.63
17060;BME280;8646;49.716;9.266;2023-03-23T10:55:41;99609.47;;;17.31;55.70
17060;BME280;8646;49.716;9.266;2023-03-23T10:58:44;99621.41;;;17.19;55.85
17060;BME280;8646;49.716;9.266;2023-03-23T11:01:51;99575.94;;;16.84;56.49
17060;BME280;8646;49.716;9.266;2023-03-23T11:05:00;99616.78;;;16.97;56.29
17060;BME280;8646;49.716;9.266;2023-03-23T11:08:11;99616.66;;;16.87;57.06
17060;BME280;8646;49.716;9.266;2023-03-23T11:11:16;99620.00;;;16.79;57.20
17060;BME280;8646;49.716;9.266;2023-03-23T11:14:20;99613.47;;;16.58;57.51
17060;BME280;8646;49.716;9.266;2023-03-23T11:17:27;99638.94;;;16.59;58.54
17060;BME280;8646;49.716;9.266;2023-03-23T11:20:32;99635.41;;;16.46;58.57
17060;BME280;8646;49.716;9.266;2023-03-23T11:23:37;99642.47;;;16.37;59.28
17060;BME280;8646;49.716;9.266;2023-03-23T11:26:43;99629.25;;;16.31;59.78
17060;BME280;8646;49.716;9.266;2023-03-23T11:29:50;99648.75;;;16.26;60.26
17060;BME280;8646;49.716;9.266;2023-03-23T11:32:59;99655.28;;;16.24;61.13
17060;BME280;8646;49.716;9.266;2023-03-23T11:36:02;99579.09;;;15.86;61.16
17060;BME280;8646;49.716;9.266;2023-03-23T11:39:20;99633.22;;;16.27;61.33
17060;BME280;8646;49.716;9.266;2023-03-23T11:42:24;99645.03;;;16.27;61.51
17060;BME280;8646;49.716;9.266;2023-03-23T11:45:34;99637.72;;;16.28;61.43
17060;BME280;8646;49.716;9.266;2023-03-23T11:48:43;99634.38;;;16.35;61.25
17060;BME280;8646;49.716;9.266;2023-03-23T11:51:49;99628.06;;;16.46;61.51
17060;BME280;8646;49.716;9.266;2023-03-23T11:54:56;99639.91;;;16.58;61.12
17060;BME280;8646;49.716;9.266;2023-03-23T11:58:03;99618.06;;;16.58;61.33
17060;BME280;8646;49.716;9.266;2023-03-23T12:01:13;99637.84;;;16.61;61.25
17060;BME280;8646;49.716;9.266;2023-03-23T12:04:32;99636.00;;;16.62;61.96
17060;BME280;8646;49.716;9.266;2023-03-23T12:07:45;99640.97;;;16.68;61.89
17060;BME280;8646;49.716;9.266;2023-03-23T12:10:57;99631.56;;;16.83;62.36
17060;BME280;8646;49.716;9.266;2023-03-23T12:14:14;99499.34;;;16.28;62.19
17060;BME280;8646;49.716;9.266;2023-03-23T12:17:23;99617.44;;;17.23;61.75
17060;BME280;8646;49.716;9.266;2023-03-23T12:20:40;99602.63;;;17.36;61.18
17060;BME280;8646;49.716;9.266;2023-03-23T12:23:52;99601.00;;;17.45;61.49
17060;BME280;8646;49.716;9.266;2023-03-23T12:27:01;99512.44;;;17.03;61.56
17060;BME280;8646;49.716;9.266;2023-03-23T12:30:14;99600.50;;;17.73;61.23
17060;BME280;8646;49.716;9.266;2023-03-23T12:33:26;99576.00;;;17.72;60.78
17060;BME280;8646;49.716;9.266;2023-03-23T12:36:41;99560.59;;;17.48;59.76
17060;BME280;8646;49.716;9.266;2023-03-23T12:39:57;99556.00;;;17.49;59.87
17060;BME280;8646;49.716;9.266;2023-03-23T12:43:14;99602.53;;;17.92;59.07
17060;BME280;8646;49.716;9.266;2023-03-23T12:46:26;99578.34;;;18.08;57.86
17060;BME280;8646;49.716;9.266;2023-03-23T12:49:35;99578.97;;;18.33;56.50
17060;BME280;8646;49.716;9.266;2023-03-23T12:52:45;99579.25;;;18.50;56.40
17060;BME280;8646;49.716;9.266;2023-03-23T12:55:50;99552.53;;;18.43;55.06
17060;BME280;8646;49.716;9.266;2023-03-23T12:59:00;99552.84;;;18.49;54.41
17060;BME280;8646;49.716;9.266;2023-03-23T13:02:15;99558.25;;;18.72;54.06
17060;BME280;8646;49.716;9.266;2023-03-23T13:05:29;99548.66;;;18.87;54.05
17060;BME280;8646;49.716;9.266;2023-03-23T13:08:40;99501.31;;;18.85;53.29
17060;BME280;8646;49.716;9.266;2023-03-23T13:11:44;99537.94;;;19.14;52.48
17060;BME280;8646;49.716;9.266;2023-03-23T13:14:54;99523.22;;;19.15;53.23
17060;BME280;8646;49.716;9.266;2023-03-23T13:18:04;99539.25;;;19.10;53.03
17060;BME280;8646;49.716;9.266;2023-03-23T13:21:16;99496.78;;;18.74;52.84
17060;BME280;8646;49.716;9.266;2023-03-23T13:24:25;99476.38;;;18.57;53.63
17060;BME280;8646;49.716;9.266;2023-03-23T13:27:29;99541.50;;;18.54;54.05
17060;BME280;8646;49.716;9.266;2023-03-23T13:30:31;99536.97;;;18.43;54.09
17060;BME280;8646;49.716;9.266;2023-03-23T13:33:35;99533.09;;;18.25;54.64
17060;BME280;8646;49.716;9.266;2023-03-23T13:36:39;99517.00;;;18.11;55.21
17060;BME280;8646;49.716;9.266;2023-03-23T13:39:51;99536.72;;;17.93;55.78
17060;BME280;8646;49.716;9.266;2023-03-23T13:42:57;99541.06;;;17.75;56.41
17060;BME280;8646;49.716;9.266;2023-03-23T13:46:08;99536.97;;;17.59;56.69
17060;BME280;8646;49.716;9.266;2023-03-23T13:49:18;99543.69;;;17.43;57.35
17060;BME280;8646;49.716;9.266;2023-03-23T13:52:36;99547.22;;;17.23;58.21
17060;BME280;8646;49.716;9.266;2023-03-23T13:55:42;99540.16;;;17.09;58.83
17060;BME280;8646;49.716;9.266;2023-03-23T13:58:45;99506.84;;;16.71;59.35
17060;BME280;8646;49.716;9.266;2023-03-23T14:01:47;99542.16;;;16.85;59.80
17060;BME280;8646;49.716;9.266;2023-03-23T14:04:50;99545.75;;;16.74;60.34
17060;BME280;8646;49.716;9.266;2023-03-23T14:07:57;99537.41;;;16.65;61.02
17060;BME280;8646;49.716;9.266;2023-03-23T14:11:13;99537.84;;;16.48;61.56
17060;BME280;8646;49.716;9.266;2023-03-23T14:14:21;99528.50;;;16.39;61.56
17060;BME280;8646;49.716;9.266;2023-03-23T14:17:26;99548.88;;;16.46;61.72
17060;BME280;8646;49.716;9.266;2023-03-23T14:20:32;99550.00;;;16.44;61.96
17060;BME280;8646;49.716;9.266;2023-03-23T14:23:34;99412.63;;;15.63;62.13
17060;BME280;8646;49.716;9.266;2023-03-23T14:26:38;99543.69;;;16.43;62.15
17060;BME280;8646;49.716;9.266;2023-03-23T14:29:40;99450.81;;;15.75;62.04
17060;BME280;8646;49.716;9.266;2023-03-23T14:32:43;99441.97;;;15.60;62.25
17060;BME280;8646;49.716;9.266;2023-03-23T14:35:45;99473.28;;;15.78;62.09
17060;BME280;8646;49.716;9.266;2023-03-23T14:38:59;99570.78;;;16.22;62.56
17060;BME280;8646;49.716;9.266;2023-03-23T14:42:04;99504.28;;;15.77;62.40
17060;BME280;8646;49.716;9.266;2023-03-23T14:45:15;99468.63;;;15.56;62.42
17060;BME280;8646;49.716;9.266;2023-03-23T14:48:18;99514.31;;;15.77;62.85
17060;BME280;8646;49.716;9.266;2023-03-23T14:51:21;99564.50;;;15.98;63.02
17060;BME280;8646;49.716;9.266;2023-03-23T14:54:25;99587.72;;;16.03;63.19
17060;BME280;8646;49.716;9.266;2023-03-23T14:57:29;99527.66;;;15.69;63.42
17060;BME280;8646;49.716;9.266;2023-03-23T15:00:34;99447.19;;;15.15;63.45
17060;BME280;8646;49.716;9.266;2023-03-23T15:03:40;99478.97;;;15.27;63.79
17060;BME280;8646;49.716;9.266;2023-03-23T15:06:46;99472.13;;;15.22;64.49
17060;BME280;8646;49.716;9.266;2023-03-23T15:09:50;99516.16;;;15.52;64.96
17060;BME280;8646;49.716;9.266;2023-03-23T15:12:53;99447.13;;;15.04;65.70
17060;BME280;8646;49.716;9.266;2023-03-23T15:16:06;99482.47;;;15.17;66.76
17060;BME280;8646;49.716;9.266;2023-03-23T15:19:13;99602.13;;;15.82;66.10
17060;BME280;8646;49.716;9.266;2023-03-23T15:22:23;99578.16;;;15.74;66.51
17060;BME280;8646;49.716;9.266;2023-03-23T15:25:30;99565.09;;;15.67;66.78
17060;BME280;8646;49.716;9.266;2023-03-23T15:28:40;99591.34;;;15.80;66.86
17060;BME280;8646;49.716;9.266;2023-03-23T15:31:44;99530.84;;;15.39;67.18
17060;BME280;8646;49.716;9.266;2023-03-23T15:34:47;99459.28;;;15.11;67.35
17060;BME280;8646;49.716;9.266;2023-03-23T15:37:51;99565.03;;;15.79;67.22
17060;BME280;8646;49.716;9.266;2023-03-23T15:40:55;99539.63;;;15.79;67.22
17060;BME280;8646;49.716;9.266;2023-03-23T15:44:10;99575.28;;;15.99;67.43
17060;BME280;8646;49.716;9.266;2023-03-23T15:47:15;99516.09;;;15.65;67.36
17060;BME280;8646;49.716;9.266;2023-03-23T15:50:19;99565.25;;;16.00;67.37
17060;BME280;8646;49.716;9.266;2023-03-23T15:53:32;99523.16;;;15.80;67.37
17060;BME280;8646;49.716;9.266;2023-03-23T15:56:34;99543.19;;;16.03;67.55
17060;BME280;8646;49.716;9.266;2023-03-23T15:59:37;99519.94;;;15.86;67.37
17060;BME280;8646;49.716;9.266;2023-03-23T16:02:40;99440.75;;;15.40;67.18
17060;BME280;8646;49.716;9.266;2023-03-23T16:05:44;99565.03;;;16.03;67.21
17060;BME280;8646;49.716;9.266;2023-03-23T16:08:47;99466.56;;;15.47;67.32
17060;BME280;8646;49.716;9.266;2023-03-23T16:11:55;99553.78;;;15.84;67.64
17060;BME280;8646;49.716;9.266;2023-03-23T16:14:59;99550.94;;;15.61;68.33
17060;BME280;8646;49.716;9.266;2023-03-23T16:18:02;99504.72;;;15.23;68.21
17060;BME280;8646;49.716;9.266;2023-03-23T16:21:06;99449.34;;;14.86;68.25
17060;BME280;8646;49.716;9.266;2023-03-23T16:24:09;99490.59;;;15.06;68.99
17060;BME280;8646;49.716;9.266;2023-03-23T16:27:12;99501.50;;;15.06;69.04
17060;BME280;8646;49.716;9.266;2023-03-23T16:30:18;99439.41;;;14.62;69.31
17060;BME280;8646;49.716;9.266;2023-03-23T16:33:21;99500.84;;;15.02;69.85
17060;BME280;8646;49.716;9.266;2023-03-23T16:36:24;99582.28;;;15.43;69.93